sensor_id;sensor_type;location;lat;lon;timestamp;P1;durP1;ratioP1;P2;durP2;ratioP2
3487;SDS011;38546;48.170;11.724;2023-03-16T00:01:22;22.77;;;10.80;;
3487;SDS011;38546;48.170;11.724;2023-03-16T00:04:12;15.63;;;8.03;;
3487;SDS011;38546;48.170;11.724;2023-03-16T00:07:01;17.53;;;9.57;;
3487;SDS011;38546;48.170;11.724;2023-03-16T00:09:51;12.57;;;7.63;;
3487;SDS011;38546;48.170;11.724;2023-03-16T00:12:42;18.83;;;10.10;;
3487;SDS011;38546;48.170;11.724;2023-03-16T00:15:32;13.63;;;9.47;;
3487;SDS011;38546;48.170;11.724;2023-03-16T00:18:23;13.80;;;8.67;;
3487;SDS011;38546;48.170;11.724;2023-03-16T00:21:15;15.87;;;8.90;;
3487;SDS011;38546;48.170;11.724;2023-03-16T00:24:05;15.13;;;8.23;;
3487;SDS011;38546;48.170;11.724;2023-03-16T00:26:54;17.20;;;9.90;;
3487;SDS011;38546;48.170;11.724;2023-03-16T00:29:45;13.10;;;8.73;;
3487;SDS011;38546;48.170;11.724;2023-03-16T00:32:36;18.50;;;8.20;;
3487;SDS011;38546;48.170;11.724;2023-03-16T00:35:26;16.70;;;9.47;;
3487;SDS011;38546;48.170;11.724;2023-03-16T00:38:16;17.73;;;9.90;;
3487;SDS011;38546;48.170;11.724;2023-03-16T00:41:07;15.77;;;8.37;;
3487;SDS011;38546;48.170;11.724;2023-03-16T00:43:56;19.07;;;9.17;;
3487;SDS011;38546;48.170;11.724;2023-03-16T00:46:45;14.33;;;8.80;;
3487;SDS011;38546;48.170;11.724;2023-03-16T00:49:35;14.90;;;8.50;;
3487;SDS011;38546;48.170;11.724;2023-03-16T00:52:24;14.37;;;8.73;;
3487;SDS011;38546;48.170;11.724;2023-03-16T00:55:15;14.07;;;8.07;;
3487;SDS011;38546;48.170;11.724;2023-03-16T00:58:06;13.33;;;9.17;;
3487;SDS011;38546;48.170;11.724;2023-03-16T01:00:55;15.77;;;9.33;;
3487;SDS011;38546;48.170;11.724;2023-03-16T01:03:45;15.73;;;8.77;;
3487;SDS011;38546;48.170;11.724;2023-03-16T01:06:35;17.30;;;9.93;;
3487;SDS011;38546;48.170;11.724;2023-03-16T01:09:24;12.03;;;8.03;;
3487;SDS011;38546;48.170;11.724;2023-03-16T01:12:14;16.97;;;8.67;;
3487;SDS011;38546;48.170;11.724;2023-03-16T01:15:06;19.30;;;8.97;;
3487;SDS011;38546;48.170;11.724;2023-03-16T01:17:57;13.00;;;8.90;;
3487;SDS011;38546;48.170;11.724;2023-03-16T01:20:47;11.33;;;7.90;;
3487;SDS011;38546;48.170;11.724;2023-03-16T01:23:39;16.90;;;9.33;;
3487;SDS011;38546;48.170;11.724;2023-03-16T01:26:28;15.67;;;8.10;;
3487;SDS011;38546;48.170;11.724;2023-03-16T01:29:18;18.20;;;10.10;;
3487;SDS011;38546;48.170;11.724;2023-03-16T01:32:08;15.93;;;9.63;;
3487;SDS011;38546;48.170;11.724;2023-03-16T01:34:57;16.30;;;9.30;;
3487;SDS011;38546;48.170;11.724;2023-03-16T01:37:46;15.67;;;9.17;;
3487;SDS011;38546;48.170;11.724;2023-03-16T01:40:36;14.97;;;8.60;;
3487;SDS011;38546;48.170;11.724;2023-03-16T01:43:27;14.37;;;8.80;;
3487;SDS011;38546;48.170;11.724;2023-03-16T01:46:30;18.10;;;8.60;;
3487;SDS011;38546;48.170;11.724;2023-03-16T01:49:21;21.80;;;9.40;;
3487;SDS011;38546;48.170;11.724;2023-03-16T01:52:21;14.20;;;9.20;;
3487;SDS011;38546;48.170;11.724;2023-03-16T01:55:15;18.93;;;10.30;;
3487;SDS011;38546;48.170;11.724;2023-03-16T01:58:04;18.50;;;10.90;;
3487;SDS011;38546;48.170;11.724;2023-03-16T02:00:54;20.50;;;10.83;;
3487;SDS011;38546;48.170;11.724;2023-03-16T02:03:45;19.10;;;10.30;;
3487;SDS011;38546;48.170;11.724;2023-03-16T02:06:34;26.57;;;10.30;;
3487;SDS011;38546;48.170;11.724;2023-03-16T02:09:25;20.70;;;10.90;;
3487;SDS011;38546;48.170;11.724;2023-03-16T02:12:15;18.13;;;10.60;;
3487;SDS011;38546;48.170;11.724;2023-03-16T02:15:06;18.33;;;10.20;;
3487;SDS011;38546;48.170;11.724;2023-03-16T02:17:57;31.63;;;15.60;;
3487;SDS011;38546;48.170;11.724;2023-03-16T02:20:49;26.67;;;14.30;;
3487;SDS011;38546;48.170;11.724;2023-03-16T02:23:45;30.63;;;15.07;;
3487;SDS011;38546;48.170;11.724;2023-03-16T02:26:45;30.87;;;14.40;;
3487;SDS011;38546;48.170;11.724;2023-03-16T02:29:55;23.37;;;11.60;;
3487;SDS011;38546;48.170;11.724;2023-03-16T02:32:56;29.20;;;12.00;;
3487;SDS011;38546;48.170;11.724;2023-03-16T02:35:46;21.73;;;11.37;;
3487;SDS011;38546;48.170;11.724;2023-03-16T02:38:36;20.97;;;12.47;;
3487;SDS011;38546;48.170;11.724;2023-03-16T02:41:25;22.50;;;11.17;;
3487;SDS011;38546;48.170;11.724;2023-03-16T02:44:15;21.30;;;11.00;;
3487;SDS011;38546;48.170;11.724;2023-03-16T02:47:15;26.47;;;12.73;;
3487;SDS011;38546;48.170;11.724;2023-03-16T02:50:27;20.50;;;11.27;;
3487;SDS011;38546;48.170;11.724;2023-03-16T02:53:16;21.10;;;11.63;;
3487;SDS011;38546;48.170;11.724;2023-03-16T02:56:06;21.57;;;12.10;;
3487;SDS011;38546;48.170;11.724;2023-03-16T02:58:56;20.37;;;11.30;;
3487;SDS011;38546;48.170;11.724;2023-03-16T03:01:45;20.33;;;11.13;;
3487;SDS011;38546;48.170;11.724;2023-03-16T03:04:35;23.03;;;12.07;;
3487;SDS011;38546;48.170;11.724;2023-03-16T03:07:24;25.20;;;12.13;;
3487;SDS011;38546;48.170;11.724;2023-03-16T03:10:19;22.23;;;12.50;;
3487;SDS011;38546;48.170;11.724;2023-03-16T03:13:09;24.93;;;13.20;;
3487;SDS011;38546;48.170;11.724;2023-03-16T03:16:00;17.23;;;10.20;;
3487;SDS011;38546;48.170;11.724;2023-03-16T03:18:49;20.93;;;10.37;;
3487;SDS011;38546;48.170;11.724;2023-03-16T03:21:40;19.27;;;10.70;;
3487;SDS011;38546;48.170;11.724;2023-03-16T03:24:30;20.67;;;12.17;;
3487;SDS011;38546;48.170;11.724;2023-03-16T03:27:20;18.93;;;11.67;;
3487;SDS011;38546;48.170;11.724;2023-03-16T03:30:11;25.80;;;10.77;;
3487;SDS011;38546;48.170;11.724;2023-03-16T03:33:04;22.00;;;11.33;;
3487;SDS011;38546;48.170;11.724;2023-03-16T03:35:54;27.63;;;12.30;;
3487;SDS011;38546;48.170;11.724;2023-03-16T03:38:45;18.23;;;11.27;;
3487;SDS011;38546;48.170;11.724;2023-03-16T03:41:34;22.73;;;11.47;;
3487;SDS011;38546;48.170;11.724;2023-03-16T03:44:23;22.93;;;12.33;;
3487;SDS011;38546;48.170;11.724;2023-03-16T03:47:14;26.00;;;12.37;;
3487;SDS011;38546;48.170;11.724;2023-03-16T03:50:04;27.83;;;12.20;;
3487;SDS011;38546;48.170;11.724;2023-03-16T03:52:55;23.57;;;12.33;;
3487;SDS011;38546;48.170;11.724;2023-03-16T03:55:44;26.13;;;13.33;;
3487;SDS011;38546;48.170;11.724;2023-03-16T03:58:35;23.87;;;12.50;;
3487;SDS011;38546;48.170;11.724;2023-03-16T04:01:24;26.77;;;12.87;;
3487;SDS011;38546;48.170;11.724;2023-03-16T04:04:14;22.37;;;11.43;;
3487;SDS011;38546;48.170;11.724;2023-03-16T04:07:04;20.20;;;10.97;;
3487;SDS011;38546;48.170;11.724;2023-03-16T04:09:53;23.23;;;12.20;;
3487;SDS011;38546;48.170;11.724;2023-03-16T04:12:42;19.60;;;10.97;;
3487;SDS011;38546;48.170;11.724;2023-03-16T04:15:32;21.90;;;11.30;;
3487;SDS011;38546;48.170;11.724;2023-03-16T04:18:21;30.93;;;12.83;;
3487;SDS011;38546;48.170;11.724;2023-03-16T04:21:13;19.73;;;11.27;;
3487;SDS011;38546;48.170;11.724;2023-03-16T04:24:05;22.47;;;12.50;;
3487;SDS011;38546;48.170;11.724;2023-03-16T04:26:54;22.70;;;11.00;;
3487;SDS011;38546;48.170;11.724;2023-03-16T04:29:43;21.90;;;10.77;;
3487;SDS011;38546;48.170;11.724;2023-03-16T04:32:32;24.50;;;12.17;;
3487;SDS011;38546;48.170;11.724;2023-03-16T04:35:21;18.70;;;10.70;;
3487;SDS011;38546;48.170;11.724;2023-03-16T04:38:11;28.83;;;13.03;;
3487;SDS011;38546;48.170;11.724;2023-03-16T04:41:01;22.93;;;11.23;;
3487;SDS011;38546;48.170;11.724;2023-03-16T04:43:52;20.67;;;12.47;;
3487;SDS011;38546;48.170;11.724;2023-03-16T04:46:41;21.97;;;12.37;;
3487;SDS011;38546;48.170;11.724;2023-03-16T04:49:30;20.67;;;10.57;;
3487;SDS011;38546;48.170;11.724;2023-03-16T04:52:19;22.67;;;10.60;;
3487;SDS011;38546;48.170;11.724;2023-03-16T04:55:08;21.47;;;10.90;;
3487;SDS011;38546;48.170;11.724;2023-03-16T04:57:58;23.03;;;10.80;;
3487;SDS011;38546;48.170;11.724;2023-03-16T05:00:53;19.87;;;11.20;;
3487;SDS011;38546;48.170;11.724;2023-03-16T05:03:46;22.63;;;11.20;;
3487;SDS011;38546;48.170;11.724;2023-03-16T05:06:37;23.17;;;9.97;;
3487;SDS011;38546;48.170;11.724;2023-03-16T05:09:26;25.93;;;10.73;;
3487;SDS011;38546;48.170;11.724;2023-03-16T05:12:17;26.87;;;11.80;;
3487;SDS011;38546;48.170;11.724;2023-03-16T05:15:06;28.27;;;13.50;;
3487;SDS011;38546;48.170;11.724;2023-03-16T05:17:57;28.97;;;13.77;;
3487;SDS011;38546;48.170;11.724;2023-03-16T05:20:50;25.37;;;13.30;;
3487;SDS011;38546;48.170;11.724;2023-03-16T05:23:41;33.73;;;14.53;;
3487;SDS011;38546;48.170;11.724;2023-03-16T05:26:30;33.70;;;14.50;;
3487;SDS011;38546;48.170;11.724;2023-03-16T05:29:19;27.43;;;12.50;;
3487;SDS011;38546;48.170;11.724;2023-03-16T05:32:08;27.73;;;13.20;;
3487;SDS011;38546;48.170;11.724;2023-03-16T05:34:58;29.10;;;13.10;;
3487;SDS011;38546;48.170;11.724;2023-03-16T05:37:48;31.53;;;12.70;;
3487;SDS011;38546;48.170;11.724;2023-03-16T05:40:37;37.80;;;15.20;;
3487;SDS011;38546;48.170;11.724;2023-03-16T05:43:26;30.43;;;13.40;;
3487;SDS011;38546;48.170;11.724;2023-03-16T05:46:19;34.77;;;14.53;;
3487;SDS011;38546;48.170;11.724;2023-03-16T05:49:08;37.20;;;14.73;;
3487;SDS011;38546;48.170;11.724;2023-03-16T05:51:58;28.57;;;13.53;;
3487;SDS011;38546;48.170;11.724;2023-03-16T05:54:47;26.60;;;14.07;;
3487;SDS011;38546;48.170;11.724;2023-03-16T05:57:36;30.87;;;13.37;;
3487;SDS011;38546;48.170;11.724;2023-03-16T06:00:26;27.30;;;13.57;;
3487;SDS011;38546;48.170;11.724;2023-03-16T06:03:17;31.53;;;11.93;;
3487;SDS011;38546;48.170;11.724;2023-03-16T06:06:05;28.93;;;13.70;;
3487;SDS011;38546;48.170;11.724;2023-03-16T06:08:55;24.63;;;13.93;;
3487;SDS011;38546;48.170;11.724;2023-03-16T06:11:44;27.30;;;12.67;;
3487;SDS011;38546;48.170;11.724;2023-03-16T06:14:33;40.40;;;12.83;;
3487;SDS011;38546;48.170;11.724;2023-03-16T06:17:22;24.17;;;12.50;;
3487;SDS011;38546;48.170;11.724;2023-03-16T06:20:12;35.00;;;14.87;;
3487;SDS011;38546;48.170;11.724;2023-03-16T06:23:01;32.80;;;13.00;;
3487;SDS011;38546;48.170;11.724;2023-03-16T06:25:51;35.80;;;14.50;;
3487;SDS011;38546;48.170;11.724;2023-03-16T06:28:44;32.47;;;13.97;;
3487;SDS011;38546;48.170;11.724;2023-03-16T06:31:33;30.70;;;13.50;;
3487;SDS011;38546;48.170;11.724;2023-03-16T06:34:22;29.40;;;14.60;;
3487;SDS011;38546;48.170;11.724;2023-03-16T06:37:12;30.77;;;13.50;;
3487;SDS011;38546;48.170;11.724;2023-03-16T06:40:02;27.20;;;13.80;;
3487;SDS011;38546;48.170;11.724;2023-03-16T06:42:52;32.30;;;14.40;;
3487;SDS011;38546;48.170;11.724;2023-03-16T06:45:41;26.83;;;13.27;;
3487;SDS011;38546;48.170;11.724;2023-03-16T06:48:30;29.70;;;14.57;;
3487;SDS011;38546;48.170;11.724;2023-03-16T06:51:19;28.93;;;15.13;;
3487;SDS011;38546;48.170;11.724;2023-03-16T06:54:09;31.23;;;15.83;;
3487;SDS011;38546;48.170;11.724;2023-03-16T06:56:58;34.97;;;15.87;;
3487;SDS011;38546;48.170;11.724;2023-03-16T06:59:47;33.77;;;15.83;;
3487;SDS011;38546;48.170;11.724;2023-03-16T07:02:37;35.07;;;15.50;;
3487;SDS011;38546;48.170;11.724;2023-03-16T07:05:28;28.90;;;14.60;;
3487;SDS011;38546;48.170;11.724;2023-03-16T07:08:17;28.67;;;15.10;;
3487;SDS011;38546;48.170;11.724;2023-03-16T07:11:06;28.30;;;13.67;;
3487;SDS011;38546;48.170;11.724;2023-03-16T07:13:56;32.17;;;14.03;;
3487;SDS011;38546;48.170;11.724;2023-03-16T07:16:46;31.60;;;14.70;;
3487;SDS011;38546;48.170;11.724;2023-03-16T07:19:36;26.60;;;13.37;;
3487;SDS011;38546;48.170;11.724;2023-03-16T07:22:25;22.20;;;12.40;;
3487;SDS011;38546;48.170;11.724;2023-03-16T07:25:14;36.07;;;14.60;;
3487;SDS011;38546;48.170;11.724;2023-03-16T07:28:04;30.00;;;13.33;;
3487;SDS011;38546;48.170;11.724;2023-03-16T07:30:53;33.23;;;12.30;;
3487;SDS011;38546;48.170;11.724;2023-03-16T07:33:42;28.73;;;13.27;;
3487;SDS011;38546;48.170;11.724;2023-03-16T07:36:32;31.20;;;13.93;;
3487;SDS011;38546;48.170;11.724;2023-03-16T07:39:21;30.90;;;14.07;;
3487;SDS011;38546;48.170;11.724;2023-03-16T07:42:10;28.47;;;13.30;;
3487;SDS011;38546;48.170;11.724;2023-03-16T07:44:59;30.17;;;12.70;;
3487;SDS011;38546;48.170;11.724;2023-03-16T07:47:49;25.60;;;12.50;;
3487;SDS011;38546;48.170;11.724;2023-03-16T07:50:38;31.10;;;14.07;;
3487;SDS011;38546;48.170;11.724;2023-03-16T07:53:28;27.80;;;14.73;;
3487;SDS011;38546;48.170;11.724;2023-03-16T07:56:17;33.17;;;14.73;;
3487;SDS011;38546;48.170;11.724;2023-03-16T07:59:06;31.30;;;14.30;;
3487;SDS011;38546;48.170;11.724;2023-03-16T08:01:55;30.80;;;12.23;;
3487;SDS011;38546;48.170;11.724;2023-03-16T08:04:45;30.83;;;14.37;;
3487;SDS011;38546;48.170;11.724;2023-03-16T08:07:34;29.93;;;13.97;;
3487;SDS011;38546;48.170;11.724;2023-03-16T08:10:24;29.43;;;12.20;;
3487;SDS011;38546;48.170;11.724;2023-03-16T08:13:13;24.03;;;12.37;;
3487;SDS011;38546;48.170;11.724;2023-03-16T08:16:03;24.87;;;11.10;;
3487;SDS011;38546;48.170;11.724;2023-03-16T08:18:57;29.70;;;12.10;;
3487;SDS011;38546;48.170;11.724;2023-03-16T08:21:47;31.27;;;12.20;;
3487;SDS011;38546;48.170;11.724;2023-03-16T08:24:36;27.07;;;13.13;;
3487;SDS011;38546;48.170;11.724;2023-03-16T08:27:26;31.90;;;13.93;;
3487;SDS011;38546;48.170;11.724;2023-03-16T08:30:16;29.40;;;13.60;;
3487;SDS011;38546;48.170;11.724;2023-03-16T08:33:06;25.63;;;13.37;;
3487;SDS011;38546;48.170;11.724;2023-03-16T08:35:56;28.50;;;13.33;;
3487;SDS011;38546;48.170;11.724;2023-03-16T08:38:46;23.33;;;11.43;;
3487;SDS011;38546;48.170;11.724;2023-03-16T08:41:35;31.30;;;12.83;;
3487;SDS011;38546;48.170;11.724;2023-03-16T08:44:25;25.80;;;11.43;;
3487;SDS011;38546;48.170;11.724;2023-03-16T08:47:14;19.43;;;11.53;;
3487;SDS011;38546;48.170;11.724;2023-03-16T08:50:04;22.43;;;11.40;;
3487;SDS011;38546;48.170;11.724;2023-03-16T08:52:56;21.57;;;10.20;;
3487;SDS011;38546;48.170;11.724;2023-03-16T08:55:45;21.90;;;11.03;;
3487;SDS011;38546;48.170;11.724;2023-03-16T08:58:35;17.77;;;9.37;;
3487;SDS011;38546;48.170;11.724;2023-03-16T09:01:25;20.00;;;11.47;;
3487;SDS011;38546;48.170;11.724;2023-03-16T09:04:15;21.23;;;10.07;;
3487;SDS011;38546;48.170;11.724;2023-03-16T09:07:05;17.60;;;9.37;;
3487;SDS011;38546;48.170;11.724;2023-03-16T09:09:54;19.70;;;10.80;;
3487;SDS011;38546;48.170;11.724;2023-03-16T09:12:44;18.47;;;10.87;;
3487;SDS011;38546;48.170;11.724;2023-03-16T09:15:33;20.43;;;10.40;;
3487;SDS011;38546;48.170;11.724;2023-03-16T09:18:24;21.43;;;10.33;;
3487;SDS011;38546;48.170;11.724;2023-03-16T09:21:14;21.20;;;10.50;;
3487;SDS011;38546;48.170;11.724;2023-03-16T09:24:03;18.53;;;9.70;;
3487;SDS011;38546;48.170;11.724;2023-03-16T09:26:55;18.70;;;10.87;;
3487;SDS011;38546;48.170;11.724;2023-03-16T09:29:45;17.40;;;9.63;;
3487;SDS011;38546;48.170;11.724;2023-03-16T09:32:34;21.30;;;10.63;;
3487;SDS011;38546;48.170;11.724;2023-03-16T09:35:24;17.40;;;9.60;;
3487;SDS011;38546;48.170;11.724;2023-03-16T09:38:14;19.47;;;9.60;;
3487;SDS011;38546;48.170;11.724;2023-03-16T09:45:52;20.33;;;10.80;;
3487;SDS011;38546;48.170;11.724;2023-03-16T09:50:03;17.43;;;9.13;;
3487;SDS011;38546;48.170;11.724;2023-03-16T09:53:25;16.13;;;9.73;;
3487;SDS011;38546;48.170;11.724;2023-03-16T09:56:28;16.47;;;9.07;;
3487;SDS011;38546;48.170;11.724;2023-03-16T09:59:28;14.70;;;8.73;;
3487;SDS011;38546;48.170;11.724;2023-03-16T10:03:07;19.80;;;9.27;;
3487;SDS011;38546;48.170;11.724;2023-03-16T10:08:41;15.50;;;9.10;;
3487;SDS011;38546;48.170;11.724;2023-03-16T10:11:37;15.53;;;8.10;;
3487;SDS011;38546;48.170;11.724;2023-03-16T10:14:45;12.67;;;8.23;;
3487;SDS011;38546;48.170;11.724;2023-03-16T10:18:04;15.43;;;9.43;;
3487;SDS011;38546;48.170;11.724;2023-03-16T10:21:02;13.20;;;8.93;;
3487;SDS011;38546;48.170;11.724;2023-03-16T10:23:53;14.87;;;8.43;;
3487;SDS011;38546;48.170;11.724;2023-03-16T10:26:52;13.00;;;8.10;;
3487;SDS011;38546;48.170;11.724;2023-03-16T10:29:47;15.30;;;8.47;;
3487;SDS011;38546;48.170;11.724;2023-03-16T10:32:37;12.90;;;8.50;;
3487;SDS011;38546;48.170;11.724;2023-03-16T10:35:36;15.10;;;9.10;;
3487;SDS011;38546;48.170;11.724;2023-03-16T10:38:40;12.80;;;9.13;;
3487;SDS011;38546;48.170;11.724;2023-03-16T10:41:55;14.67;;;8.10;;
3487;SDS011;38546;48.170;11.724;2023-03-16T10:44:46;17.03;;;9.23;;
3487;SDS011;38546;48.170;11.724;2023-03-16T10:47:35;15.53;;;8.97;;
3487;SDS011;38546;48.170;11.724;2023-03-16T10:50:25;19.83;;;10.20;;
3487;SDS011;38546;48.170;11.724;2023-03-16T10:53:16;20.60;;;11.57;;
3487;SDS011;38546;48.170;11.724;2023-03-16T10:56:18;15.90;;;8.10;;
3487;SDS011;38546;48.170;11.724;2023-03-16T10:59:34;13.37;;;8.60;;
3487;SDS011;38546;48.170;11.724;2023-03-16T11:02:29;12.53;;;7.50;;
3487;SDS011;38546;48.170;11.724;2023-03-16T11:05:29;12.90;;;8.53;;
3487;SDS011;38546;48.170;11.724;2023-03-16T11:08:22;15.50;;;8.50;;
3487;SDS011;38546;48.170;11.724;2023-03-16T11:11:25;12.60;;;8.13;;
3487;SDS011;38546;48.170;11.724;2023-03-16T11:14:20;13.27;;;7.77;;
3487;SDS011;38546;48.170;11.724;2023-03-16T11:17:29;14.00;;;8.97;;
3487;SDS011;38546;48.170;11.724;2023-03-16T11:20:27;13.90;;;7.67;;
3487;SDS011;38546;48.170;11.724;2023-03-16T11:23:24;14.23;;;8.93;;
3487;SDS011;38546;48.170;11.724;2023-03-16T11:26:23;13.73;;;7.93;;
3487;SDS011;38546;48.170;11.724;2023-03-16T11:29:31;16.23;;;9.00;;
3487;SDS011;38546;48.170;11.724;2023-03-16T11:32:35;13.73;;;8.03;;
3487;SDS011;38546;48.170;11.724;2023-03-16T11:35:29;15.60;;;8.17;;
3487;SDS011;38546;48.170;11.724;2023-03-16T11:41:18;14.47;;;8.13;;
3487;SDS011;38546;48.170;11.724;2023-03-16T11:44:27;12.50;;;8.10;;
3487;SDS011;38546;48.170;11.724;2023-03-16T11:52:07;12.87;;;7.83;;
3487;SDS011;38546;48.170;11.724;2023-03-16T12:05:54;14.30;;;8.17;;
3487;SDS011;38546;48.170;11.724;2023-03-16T12:17:52;9.43;;;7.10;;
3487;SDS011;38546;48.170;11.724;2023-03-16T12:20:52;8.43;;;7.23;;
3487;SDS011;38546;48.170;11.724;2023-03-16T12:23:54;12.57;;;8.70;;
3487;SDS011;38546;48.170;11.724;2023-03-16T12:26:51;14.87;;;8.30;;
3487;SDS011;38546;48.170;11.724;2023-03-16T12:29:55;8.60;;;6.00;;
3487;SDS011;38546;48.170;11.724;2023-03-16T12:39:22;8.70;;;6.63;;
3487;SDS011;38546;48.170;11.724;2023-03-16T12:43:09;6.00;;;5.13;;
3487;SDS011;38546;48.170;11.724;2023-03-16T12:47:56;5.40;;;4.50;;
3487;SDS011;38546;48.170;11.724;2023-03-16T12:51:37;7.87;;;5.50;;
3487;SDS011;38546;48.170;11.724;2023-03-16T12:54:29;11.53;;;5.73;;
3487;SDS011;38546;48.170;11.724;2023-03-16T12:57:21;5.30;;;4.50;;
3487;SDS011;38546;48.170;11.724;2023-03-16T13:00:15;6.60;;;5.20;;
3487;SDS011;38546;48.170;11.724;2023-03-16T13:03:10;6.43;;;4.83;;
3487;SDS011;38546;48.170;11.724;2023-03-16T13:06:04;7.93;;;5.20;;
3487;SDS011;38546;48.170;11.724;2023-03-16T13:08:55;8.67;;;5.03;;
3487;SDS011;38546;48.170;11.724;2023-03-16T13:11:48;5.03;;;4.37;;
3487;SDS011;38546;48.170;11.724;2023-03-16T13:14:39;7.27;;;4.90;;
3487;SDS011;38546;48.170;11.724;2023-03-16T13:17:32;5.27;;;3.83;;
3487;SDS011;38546;48.170;11.724;2023-03-16T13:20:23;5.40;;;4.10;;
3487;SDS011;38546;48.170;11.724;2023-03-16T13:23:20;4.87;;;4.27;;
3487;SDS011;38546;48.170;11.724;2023-03-16T13:26:38;4.50;;;3.90;;
3487;SDS011;38546;48.170;11.724;2023-03-16T13:29:32;5.30;;;4.57;;
3487;SDS011;38546;48.170;11.724;2023-03-16T13:32:21;9.50;;;4.47;;
3487;SDS011;38546;48.170;11.724;2023-03-16T13:35:16;5.10;;;3.97;;
3487;SDS011;38546;48.170;11.724;2023-03-16T13:38:12;8.33;;;4.90;;
3487;SDS011;38546;48.170;11.724;2023-03-16T13:41:04;4.07;;;3.77;;
3487;SDS011;38546;48.170;11.724;2023-03-16T13:43:59;4.40;;;4.10;;
3487;SDS011;38546;48.170;11.724;2023-03-16T13:46:48;4.67;;;3.97;;
3487;SDS011;38546;48.170;11.724;2023-03-16T13:49:44;4.20;;;3.80;;
3487;SDS011;38546;48.170;11.724;2023-03-16T13:52:36;6.00;;;4.77;;
3487;SDS011;38546;48.170;11.724;2023-03-16T13:55:30;4.40;;;3.10;;
3487;SDS011;38546;48.170;11.724;2023-03-16T13:58:23;4.83;;;3.80;;
3487;SDS011;38546;48.170;11.724;2023-03-16T14:01:25;5.50;;;4.27;;
3487;SDS011;38546;48.170;11.724;2023-03-16T14:04:20;3.97;;;3.50;;
3487;SDS011;38546;48.170;11.724;2023-03-16T14:07:14;6.40;;;4.30;;
3487;SDS011;38546;48.170;11.724;2023-03-16T14:10:08;5.10;;;4.10;;
3487;SDS011;38546;48.170;11.724;2023-03-16T14:13:08;4.77;;;3.70;;
3487;SDS011;38546;48.170;11.724;2023-03-16T14:17:52;5.10;;;4.50;;
3487;SDS011;38546;48.170;11.724;2023-03-16T14:20:56;5.13;;;3.90;;
3487;SDS011;38546;48.170;11.724;2023-03-16T14:23:46;3.93;;;3.63;;
3487;SDS011;38546;48.170;11.724;2023-03-16T14:26:46;4.93;;;3.43;;
3487;SDS011;38546;48.170;11.724;2023-03-16T14:29:35;4.57;;;3.70;;
3487;SDS011;38546;48.170;11.724;2023-03-16T14:32:27;3.80;;;3.37;;
3487;SDS011;38546;48.170;11.724;2023-03-16T14:35:20;5.23;;;3.47;;
3487;SDS011;38546;48.170;11.724;2023-03-16T14:38:20;3.43;;;3.10;;
3487;SDS011;38546;48.170;11.724;2023-03-16T14:41:21;5.23;;;3.90;;
3487;SDS011;38546;48.170;11.724;2023-03-16T14:44:19;5.13;;;4.40;;
3487;SDS011;38546;48.170;11.724;2023-03-16T14:47:17;5.10;;;4.27;;
3487;SDS011;38546;48.170;11.724;2023-03-16T14:50:17;5.70;;;3.87;;
3487;SDS011;38546;48.170;11.724;2023-03-16T14:53:13;4.37;;;4.07;;
3487;SDS011;38546;48.170;11.724;2023-03-16T14:56:03;3.70;;;3.40;;
3487;SDS011;38546;48.170;11.724;2023-03-16T14:59:01;3.80;;;3.50;;
3487;SDS011;38546;48.170;11.724;2023-03-16T15:01:50;3.30;;;3.07;;
3487;SDS011;38546;48.170;11.724;2023-03-16T15:04:42;3.83;;;3.27;;
3487;SDS011;38546;48.170;11.724;2023-03-16T15:07:33;4.00;;;3.60;;
3487;SDS011;38546;48.170;11.724;2023-03-16T15:10:28;5.80;;;4.60;;
3487;SDS011;38546;48.170;11.724;2023-03-16T15:13:21;5.00;;;3.70;;
3487;SDS011;38546;48.170;11.724;2023-03-16T15:16:29;8.33;;;5.20;;
3487;SDS011;38546;48.170;11.724;2023-03-16T15:19:19;4.67;;;3.90;;
3487;SDS011;38546;48.170;11.724;2023-03-16T15:22:08;4.40;;;4.00;;
3487;SDS011;38546;48.170;11.724;2023-03-16T15:25:04;5.03;;;4.27;;
3487;SDS011;38546;48.170;11.724;2023-03-16T15:28:32;6.17;;;4.20;;
3487;SDS011;38546;48.170;11.724;2023-03-16T15:31:22;4.03;;;3.63;;
3487;SDS011;38546;48.170;11.724;2023-03-16T15:34:12;4.00;;;3.50;;
3487;SDS011;38546;48.170;11.724;2023-03-16T15:37:01;3.87;;;3.17;;
3487;SDS011;38546;48.170;11.724;2023-03-16T15:39:51;3.50;;;3.20;;
3487;SDS011;38546;48.170;11.724;2023-03-16T15:42:39;3.30;;;2.93;;
3487;SDS011;38546;48.170;11.724;2023-03-16T15:45:29;3.13;;;2.80;;
3487;SDS011;38546;48.170;11.724;2023-03-16T15:48:18;3.53;;;3.23;;
3487;SDS011;38546;48.170;11.724;2023-03-16T15:51:22;5.27;;;4.17;;
3487;SDS011;38546;48.170;11.724;2023-03-16T15:54:15;7.70;;;4.30;;
3487;SDS011;38546;48.170;11.724;2023-03-16T15:57:05;4.37;;;3.97;;
3487;SDS011;38546;48.170;11.724;2023-03-16T15:59:56;3.77;;;3.43;;
3487;SDS011;38546;48.170;11.724;2023-03-16T16:02:47;6.93;;;4.40;;
3487;SDS011;38546;48.170;11.724;2023-03-16T16:05:36;6.70;;;3.70;;
3487;SDS011;38546;48.170;11.724;2023-03-16T16:08:25;5.17;;;4.67;;
3487;SDS011;38546;48.170;11.724;2023-03-16T16:11:14;4.23;;;3.37;;
3487;SDS011;38546;48.170;11.724;2023-03-16T16:14:15;4.23;;;3.80;;
3487;SDS011;38546;48.170;11.724;2023-03-16T16:17:10;4.80;;;3.50;;
3487;SDS011;38546;48.170;11.724;2023-03-16T16:20:14;4.07;;;3.30;;
3487;SDS011;38546;48.170;11.724;2023-03-16T16:23:08;3.20;;;3.00;;
3487;SDS011;38546;48.170;11.724;2023-03-16T16:25:59;5.83;;;3.80;;
3487;SDS011;38546;48.170;11.724;2023-03-16T16:28:51;6.00;;;3.83;;
3487;SDS011;38546;48.170;11.724;2023-03-16T16:31:41;6.20;;;3.80;;
3487;SDS011;38546;48.170;11.724;2023-03-16T16:34:30;3.70;;;3.30;;
3487;SDS011;38546;48.170;11.724;2023-03-16T16:37:19;5.50;;;3.70;;
3487;SDS011;38546;48.170;11.724;2023-03-16T16:40:23;4.93;;;3.57;;
3487;SDS011;38546;48.170;11.724;2023-03-16T16:43:41;4.43;;;3.67;;
3487;SDS011;38546;48.170;11.724;2023-03-16T16:46:35;3.70;;;3.40;;
3487;SDS011;38546;48.170;11.724;2023-03-16T16:49:29;4.47;;;3.47;;
3487;SDS011;38546;48.170;11.724;2023-03-16T16:52:19;3.43;;;3.13;;
3487;SDS011;38546;48.170;11.724;2023-03-16T16:55:08;4.77;;;4.37;;
3487;SDS011;38546;48.170;11.724;2023-03-16T16:57:58;3.83;;;3.60;;
3487;SDS011;38546;48.170;11.724;2023-03-16T17:00:49;4.50;;;3.43;;
3487;SDS011;38546;48.170;11.724;2023-03-16T17:03:46;7.83;;;3.50;;
3487;SDS011;38546;48.170;11.724;2023-03-16T17:06:35;3.20;;;2.90;;
3487;SDS011;38546;48.170;11.724;2023-03-16T17:09:25;5.20;;;4.13;;
3487;SDS011;38546;48.170;11.724;2023-03-16T17:12:16;5.00;;;4.07;;
3487;SDS011;38546;48.170;11.724;2023-03-16T17:15:16;6.60;;;3.73;;
3487;SDS011;38546;48.170;11.724;2023-03-16T17:18:14;4.93;;;3.60;;
3487;SDS011;38546;48.170;11.724;2023-03-16T17:21:04;4.13;;;3.80;;
3487;SDS011;38546;48.170;11.724;2023-03-16T17:23:57;4.60;;;4.13;;
3487;SDS011;38546;48.170;11.724;2023-03-16T17:26:49;4.17;;;3.47;;
3487;SDS011;38546;48.170;11.724;2023-03-16T17:29:46;5.90;;;3.00;;
3487;SDS011;38546;48.170;11.724;2023-03-16T17:32:35;3.40;;;3.10;;
3487;SDS011;38546;48.170;11.724;2023-03-16T17:35:24;9.40;;;5.00;;
3487;SDS011;38546;48.170;11.724;2023-03-16T17:38:15;6.10;;;4.20;;
3487;SDS011;38546;48.170;11.724;2023-03-16T17:41:15;5.93;;;4.80;;
3487;SDS011;38546;48.170;11.724;2023-03-16T17:44:10;5.27;;;4.20;;
3487;SDS011;38546;48.170;11.724;2023-03-16T17:47:02;7.50;;;4.40;;
3487;SDS011;38546;48.170;11.724;2023-03-16T17:49:59;11.03;;;4.70;;
3487;SDS011;38546;48.170;11.724;2023-03-16T17:52:50;4.73;;;4.30;;